Time;durP1;ratioP1;P1;durP2;ratioP2;P2;SDS_P1;SDS_P2;PMS_P1;PMS_P2;Temp;Humidity;BMP_temperature;BMP_pressure;BME280_temperature;BME280_humidity;BME280_pressure;Samples;Min_cycle;Max_cycle;Signal;HPM_P1;HPM_P2
2022/10/19 00:01:16;;;;;;;10.32;1.70;;;12.20;99.90;;;;;;5030664;28;20037;-74
2022/10/19 00:03:44;;;;;;;8.13;1.70;;;12.20;99.90;;;;;;5031004;28;20041;-75
2022/10/19 00:06:12;;;;;;;6.53;1.70;;;12.20;99.90;;;;;;5013301;28;20022;-75
2022/10/19 00:08:38;;;;;;;4.68;1.27;;;12.10;99.90;;;;;;5030850;28;20040;-76
2022/10/19 00:11:04;;;;;;;4.30;1.42;;;12.10;99.90;;;;;;5031514;28;20033;-76
2022/10/19 00:13:29;;;;;;;12.48;2.65;;;12.20;99.90;;;;;;5030602;28;20021;-75
2022/10/19 00:15:55;;;;;;;5.90;1.20;;;12.20;99.90;;;;;;5030777;28;20478;-75
2022/10/19 00:18:21;;;;;;;5.30;1.38;;;12.20;99.90;;;;;;5007705;28;20045;-76
2022/10/19 00:20:47;;;;;;;7.03;1.23;;;12.20;99.90;;;;;;5034666;28;20033;-74
2022/10/19 00:23:12;;;;;;;10.77;1.52;;;12.20;99.90;;;;;;5034552;28;20108;-76
2022/10/19 00:25:38;;;;;;;9.25;2.05;;;12.20;99.90;;;;;;5034410;28;20378;-76
2022/10/19 00:28:04;;;;;;;11.45;1.50;;;12.10;99.90;;;;;;5008640;28;20069;-75
2022/10/19 00:30:30;;;;;;;8.65;1.60;;;12.10;99.90;;;;;;5033936;28;20038;-76
2022/10/19 00:32:55;;;;;;;13.00;2.20;;;12.10;99.90;;;;;;5011513;28;20093;-75
2022/10/19 00:35:21;;;;;;;10.45;1.73;;;12.10;99.90;;;;;;5024340;28;20026;-75
2022/10/19 00:37:47;;;;;;;12.07;1.85;;;12.10;99.90;;;;;;5028309;28;20065;-75
2022/10/19 00:40:12;;;;;;;10.30;1.30;;;12.10;99.90;;;;;;5016245;28;20028;-76
2022/10/19 00:42:38;;;;;;;7.63;1.52;;;12.10;99.90;;;;;;5016718;28;20037;-76
2022/10/19 00:45:11;;;;;;;7.57;1.65;;;12.10;99.90;;;;;;5033388;28;20076;-76
2022/10/19 00:47:37;;;;;;;8.65;1.70;;;12.10;99.90;;;;;;5032431;28;20071;-76
2022/10/19 00:50:04;;;;;;;6.55;1.33;;;12.10;99.90;;;;;;5032679;28;20847;-76
2022/10/19 00:52:30;;;;;;;8.45;1.52;;;12.10;99.90;;;;;;5033126;28;20037;-76
2022/10/19 00:54:57;;;;;;;11.52;1.67;;;12.10;99.90;;;;;;5032958;28;20076;-76
2022/10/19 00:57:27;;;;;;;8.73;1.55;;;12.10;99.90;;;;;;5015735;28;20029;-74
2022/10/19 00:59:53;;;;;;;7.43;1.50;;;12.10;99.90;;;;;;5033538;28;20068;-76
2022/10/19 01:02:19;;;;;;;10.55;1.35;;;12.00;99.90;;;;;;5034324;28;20066;-76
2022/10/19 01:04:48;;;;;;;10.65;1.13;;;12.10;99.90;;;;;;5034644;28;20045;-75
2022/10/19 01:07:14;;;;;;;12.65;1.88;;;12.10;99.90;;;;;;5032321;28;20057;-76
2022/10/19 01:09:40;;;;;;;9.07;1.25;;;12.00;99.90;;;;;;5031932;28;20033;-75
2022/10/19 01:12:29;;;;;;;15.32;1.15;;;12.00;99.90;;;;;;5032699;28;20025;-75
2022/10/19 01:15:02;;;;;;;9.10;1.95;;;12.10;99.90;;;;;;5008277;28;20072;-76
2022/10/19 01:17:28;;;;;;;9.15;1.58;;;12.10;99.90;;;;;;5033932;28;20946;-75
2022/10/19 01:20:21;;;;;;;11.52;1.73;;;12.10;99.90;;;;;;5031122;28;20033;-75
2022/10/19 01:23:21;;;;;;;6.53;1.42;;;12.00;99.90;;;;;;5032494;28;20026;-75
2022/10/19 01:26:24;;;;;;;14.00;1.52;;;11.90;99.90;;;;;;5031963;28;20053;-75
2022/10/19 01:29:28;;;;;;;10.05;2.00;;;11.90;99.90;;;;;;5031099;28;20092;-76
2022/10/19 01:32:04;;;;;;;6.63;1.10;;;11.90;99.90;;;;;;5033232;28;20044;-74
2022/10/19 01:34:48;;;;;;;8.93;1.77;;;11.90;99.90;;;;;;5039671;28;20025;-75
2022/10/19 01:37:32;;;;;;;4.90;1.38;;;11.90;99.90;;;;;;5031521;28;20721;-75
2022/10/19 01:40:03;;;;;;;12.18;1.70;;;11.90;99.90;;;;;;5032890;28;20029;-75
2022/10/19 01:42:48;;;;;;;6.07;1.33;;;11.90;99.90;;;;;;5033310;28;20051;-77
2022/10/19 01:45:19;;;;;;;15.52;1.98;;;11.90;99.90;;;;;;5032637;28;20061;-75
2022/10/19 01:47:58;;;;;;;13.45;1.63;;;12.00;99.90;;;;;;5033905;28;20029;-75
2022/10/19 01:50:53;;;;;;;14.40;1.55;;;12.00;99.90;;;;;;5033461;28;20025;-76
2022/10/19 01:53:20;;;;;;;11.02;1.60;;;11.90;99.90;;;;;;5029034;28;20038;-73
2022/10/19 01:55:50;;;;;;;9.80;1.85;;;11.90;99.90;;;;;;5036592;28;20033;-73
2022/10/19 01:58:21;;;;;;;9.02;1.65;;;11.90;99.90;;;;;;5032686;28;20030;-73
2022/10/19 02:00:49;;;;;;;8.05;1.20;;;11.90;99.90;;;;;;5032740;28;20072;-74
2022/10/19 02:03:16;;;;;;;7.43;1.83;;;12.00;99.90;;;;;;5031657;28;20029;-74
2022/10/19 02:05:44;;;;;;;13.43;2.08;;;11.90;99.90;;;;;;5031936;28;20051;-74
2022/10/19 02:08:13;;;;;;;8.30;1.20;;;11.90;99.90;;;;;;5032695;28;20021;-73
2022/10/19 02:10:42;;;;;;;6.38;1.45;;;11.90;99.90;;;;;;5032537;28;20037;-76
2022/10/19 02:13:12;;;;;;;8.77;1.60;;;11.90;99.90;;;;;;5032056;28;20022;-74
2022/10/19 02:15:42;;;;;;;9.15;1.55;;;11.90;99.90;;;;;;5015119;28;20034;-77
2022/10/19 02:18:11;;;;;;;10.13;1.27;;;11.90;99.90;;;;;;5022407;28;20029;-76
2022/10/19 02:20:37;;;;;;;11.40;1.73;;;11.90;99.90;;;;;;5032109;28;20022;-74
2022/10/19 02:23:05;;;;;;;10.15;1.67;;;11.90;99.90;;;;;;5014171;28;20157;-74
2022/10/19 02:25:31;;;;;;;8.05;1.73;;;11.90;99.90;;;;;;5032922;28;20029;-75
2022/10/19 02:27:58;;;;;;;11.63;1.23;;;11.80;99.90;;;;;;5032511;28;20025;-75
2022/10/19 02:30:24;;;;;;;11.43;1.63;;;11.80;99.90;;;;;;5032541;28;20486;-74
2022/10/19 02:32:50;;;;;;;7.63;1.20;;;11.90;99.90;;;;;;5031812;28;20042;-73
2022/10/19 02:35:16;;;;;;;6.85;1.65;;;11.90;99.90;;;;;;5032059;28;20029;-76
2022/10/19 02:37:41;;;;;;;7.75;1.35;;;11.90;99.90;;;;;;5031287;28;20085;-76
2022/10/19 02:40:08;;;;;;;9.98;1.27;;;11.90;99.90;;;;;;5030608;28;20395;-76
2022/10/19 02:42:49;;;;;;;7.38;1.40;;;11.90;99.90;;;;;;5032208;28;20036;-77
2022/10/19 02:45:31;;;;;;;7.55;1.17;;;11.90;99.90;;;;;;5030285;28;20076;-76
2022/10/19 02:48:03;;;;;;;8.73;1.13;;;11.90;99.90;;;;;;5030877;28;20062;-76
2022/10/19 02:50:28;;;;;;;10.15;1.70;;;11.90;99.90;;;;;;5031762;28;20029;-74
2022/10/19 02:52:54;;;;;;;7.68;1.20;;;11.90;99.90;;;;;;5031683;28;20083;-75
2022/10/19 02:55:20;;;;;;;10.60;1.40;;;11.90;99.90;;;;;;5013517;28;20014;-76
2022/10/19 02:57:45;;;;;;;12.40;1.75;;;11.90;99.90;;;;;;5032138;28;20036;-76
2022/10/19 03:00:11;;;;;;;7.38;1.65;;;11.80;99.90;;;;;;5031240;28;20049;-75
2022/10/19 03:02:37;;;;;;;9.00;1.45;;;11.90;99.90;;;;;;5029829;28;20030;-77
2022/10/19 03:05:03;;;;;;;9.70;1.73;;;11.90;99.90;;;;;;5031594;28;20065;-74
2022/10/19 03:07:29;;;;;;;7.57;1.45;;;11.90;99.90;;;;;;5031053;28;20051;-76
2022/10/19 03:09:55;;;;;;;9.88;1.38;;;11.90;99.90;;;;;;5012981;28;20029;-75
2022/10/19 03:12:20;;;;;;;7.82;1.75;;;11.90;99.90;;;;;;5028385;28;20030;-74
2022/10/19 03:14:46;;;;;;;12.02;1.90;;;11.90;99.90;;;;;;5031288;28;20032;-75
2022/10/19 03:17:11;;;;;;;13.05;1.95;;;11.80;99.90;;;;;;5031532;28;20029;-77
2022/10/19 03:19:38;;;;;;;8.95;1.60;;;11.90;99.90;;;;;;5030617;28;20026;-77
2022/10/19 03:22:04;;;;;;;8.43;1.40;;;11.90;99.90;;;;;;5031381;28;20052;-76
2022/10/19 03:24:30;;;;;;;10.45;1.60;;;11.90;99.90;;;;;;5031452;28;20049;-76
2022/10/19 03:26:55;;;;;;;14.55;1.90;;;11.80;99.90;;;;;;5031033;28;20089;-75
2022/10/19 03:29:21;;;;;;;10.65;1.42;;;11.80;99.90;;;;;;5030919;28;20547;-76
2022/10/19 03:31:47;;;;;;;6.82;1.45;;;11.80;99.90;;;;;;5033697;28;20038;-76
2022/10/19 03:34:13;;;;;;;11.02;1.98;;;11.80;99.90;;;;;;5031627;28;20024;-76
2022/10/19 03:36:39;;;;;;;14.45;1.90;;;11.70;99.90;;;;;;5015460;28;20466;-76
2022/10/19 03:39:15;;;;;;;15.55;2.47;;;11.70;99.90;;;;;;5019809;28;20061;-77
2022/10/19 03:41:41;;;;;;;13.50;1.95;;;11.70;99.90;;;;;;5029978;28;20033;-77
2022/10/19 03:44:08;;;;;;;18.00;2.28;;;11.70;99.90;;;;;;5013289;28;20029;-75
2022/10/19 03:46:35;;;;;;;6.72;1.45;;;11.70;99.90;;;;;;5013231;28;20042;-75
2022/10/19 03:49:00;;;;;;;12.68;1.77;;;11.70;99.90;;;;;;5029331;28;20021;-76
2022/10/19 03:51:28;;;;;;;7.97;2.10;;;11.70;99.90;;;;;;5031632;28;20045;-75
2022/10/19 03:53:59;;;;;;;12.35;1.92;;;11.70;99.90;;;;;;5033983;28;20033;-76
2022/10/19 03:56:26;;;;;;;9.85;1.77;;;11.60;99.90;;;;;;5016474;28;20064;-73
2022/10/19 03:58:53;;;;;;;10.38;1.70;;;11.60;99.90;;;;;;5034572;28;20510;-75
2022/10/19 04:01:24;;;;;;;7.50;1.65;;;11.60;99.90;;;;;;5033801;28;20036;-76
2022/10/19 04:03:55;;;;;;;9.85;1.70;;;11.60;99.90;;;;;;5026097;28;20030;-76
2022/10/19 04:06:24;;;;;;;12.82;2.03;;;11.60;99.90;;;;;;5034913;28;20046;-76
2022/10/19 04:08:50;;;;;;;10.70;1.65;;;11.60;99.90;;;;;;5034257;28;20026;-75
2022/10/19 04:11:17;;;;;;;12.23;1.50;;;11.60;99.90;;;;;;5016570;28;20041;-76
2022/10/19 04:13:43;;;;;;;7.78;1.75;;;11.60;99.90;;;;;;5034748;28;20447;-75
2022/10/19 04:16:12;;;;;;;11.70;1.70;;;11.60;99.90;;;;;;5033941;28;20022;-74
2022/10/19 04:18:37;;;;;;;12.45;1.60;;;11.60;99.90;;;;;;5034891;28;20022;-76
2022/10/19 04:21:04;;;;;;;11.07;1.60;;;11.60;99.90;;;;;;5034535;28;20108;-75
2022/10/19 04:23:33;;;;;;;12.40;1.60;;;11.60;99.90;;;;;;5034610;28;20029;-76
2022/10/19 04:26:00;;;;;;;17.15;1.95;;;11.60;99.90;;;;;;5023616;28;20121;-77
2022/10/19 04:28:26;;;;;;;12.85;1.77;;;11.60;99.90;;;;;;5035742;28;20092;-74
2022/10/19 04:30:52;;;;;;;7.57;1.42;;;11.60;99.90;;;;;;5034072;28;20478;-75
2022/10/19 04:33:17;;;;;;;10.55;1.98;;;11.60;99.90;;;;;;5034170;28;20081;-75
2022/10/19 04:35:43;;;;;;;6.95;1.65;;;11.70;99.90;;;;;;5033831;28;20041;-74
2022/10/19 04:38:09;;;;;;;12.10;1.52;;;11.60;99.90;;;;;;5033827;28;20517;-75
2022/10/19 04:40:35;;;;;;;8.32;1.38;;;11.60;99.90;;;;;;5024046;28;20017;-76
2022/10/19 04:43:01;;;;;;;8.55;1.25;;;11.60;99.90;;;;;;5034380;28;20033;-76
2022/10/19 04:45:27;;;;;;;11.55;1.85;;;11.60;99.90;;;;;;5007810;28;20105;-75
2022/10/19 04:47:55;;;;;;;7.63;1.58;;;11.60;99.90;;;;;;5015820;28;20057;-75
2022/10/19 04:50:22;;;;;;;10.77;2.25;;;11.70;99.90;;;;;;5033257;28;20026;-74
2022/10/19 04:52:47;;;;;;;10.45;1.70;;;11.70;99.90;;;;;;5033530;28;20098;-76
2022/10/19 04:55:13;;;;;;;13.75;1.60;;;11.70;99.90;;;;;;5033985;28;20065;-75
2022/10/19 04:57:39;;;;;;;10.60;1.70;;;11.70;99.90;;;;;;5033316;28;20049;-75
2022/10/19 05:00:05;;;;;;;8.15;1.83;;;11.70;99.90;;;;;;5033974;28;20229;-76
2022/10/19 05:02:31;;;;;;;12.43;1.55;;;11.70;99.90;;;;;;5016109;28;20025;-76
2022/10/19 05:04:56;;;;;;;18.65;1.83;;;11.70;99.90;;;;;;5032449;28;20105;-74
2022/10/19 05:07:22;;;;;;;8.55;1.92;;;11.70;99.90;;;;;;5033011;28;20030;-76
2022/10/19 05:09:48;;;;;;;6.07;1.38;;;11.70;99.90;;;;;;5033319;28;20056;-74
2022/10/19 05:12:13;;;;;;;10.90;2.20;;;11.70;99.90;;;;;;5032857;28;20056;-75
2022/10/19 05:14:39;;;;;;;8.32;1.63;;;11.70;99.90;;;;;;5033486;28;20042;-75
2022/10/19 05:17:05;;;;;;;12.15;1.88;;;11.70;99.90;;;;;;5033589;28;20064;-76
2022/10/19 05:19:30;;;;;;;9.15;1.50;;;11.80;99.90;;;;;;5033196;28;20112;-75
2022/10/19 05:21:56;;;;;;;7.70;1.58;;;11.70;99.90;;;;;;5034323;28;20072;-75
2022/10/19 05:24:22;;;;;;;8.73;1.73;;;11.70;99.90;;;;;;5033694;28;20037;-76
2022/10/19 05:26:47;;;;;;;9.38;2.13;;;11.80;99.90;;;;;;5032216;28;20044;-76
2022/10/19 05:29:13;;;;;;;5.28;1.60;;;11.80;99.90;;;;;;5033025;28;20135;-76
2022/10/19 05:31:39;;;;;;;10.80;1.75;;;11.80;99.90;;;;;;5031001;28;20037;-77
2022/10/19 05:34:05;;;;;;;8.30;1.02;;;11.80;99.90;;;;;;5016802;28;20026;-78
2022/10/19 05:36:36;;;;;;;10.77;1.27;;;11.80;99.90;;;;;;5006238;28;20029;-79
2022/10/19 05:39:10;;;;;;;9.48;1.63;;;11.80;99.90;;;;;;5032254;28;20054;-79
2022/10/19 05:41:36;;;;;;;9.75;1.02;;;11.80;99.90;;;;;;5033776;28;20036;-76
2022/10/19 05:44:03;;;;;;;4.65;1.35;;;11.80;99.90;;;;;;5032811;28;20046;-75
2022/10/19 05:46:30;;;;;;;5.50;1.25;;;11.80;99.90;;;;;;5029855;28;20045;-75
2022/10/19 05:48:57;;;;;;;3.33;0.70;;;11.80;99.90;;;;;;5030651;28;20094;-75
2022/10/19 05:51:24;;;;;;;9.73;1.13;;;11.80;99.90;;;;;;5031408;28;20025;-75
2022/10/19 05:53:51;;;;;;;7.43;1.33;;;11.80;99.90;;;;;;5031482;28;20021;-74
2022/10/19 05:56:25;;;;;;;4.75;1.05;;;11.80;99.90;;;;;;5026485;28;20037;-77
2022/10/19 05:58:51;;;;;;;21.77;1.92;;;11.80;99.90;;;;;;5031669;28;20029;-77
2022/10/19 06:01:18;;;;;;;14.68;1.52;;;11.80;99.90;;;;;;5032765;28;20060;-75
2022/10/19 06:03:45;;;;;;;7.38;1.40;;;11.90;99.90;;;;;;5032006;28;20022;-76
2022/10/19 06:06:11;;;;;;;3.90;1.20;;;11.80;99.90;;;;;;5029999;28;20036;-78
2022/10/19 06:08:38;;;;;;;8.27;1.58;;;11.80;99.90;;;;;;5015332;28;20029;-76
2022/10/19 06:11:13;;;;;;;11.07;1.83;;;11.90;99.90;;;;;;5015390;28;20029;-76
2022/10/19 06:13:40;;;;;;;7.95;1.10;;;11.80;99.90;;;;;;5031880;28;20029;-77
2022/10/19 06:16:08;;;;;;;8.35;1.10;;;11.80;99.90;;;;;;5012753;28;20041;-77
2022/10/19 06:18:33;;;;;;;9.73;1.40;;;11.80;99.90;;;;;;5033778;28;20041;-77
2022/10/19 06:21:17;;;;;;;11.75;2.00;;;11.80;99.90;;;;;;5016415;28;20017;-77
2022/10/19 06:23:43;;;;;;;17.17;1.85;;;11.80;99.90;;;;;;5033680;28;20056;-77
2022/10/19 06:26:11;;;;;;;9.55;1.75;;;11.80;99.90;;;;;;5021175;28;20049;-79
2022/10/19 06:28:39;;;;;;;18.90;2.00;;;11.80;99.90;;;;;;5029436;28;20479;-78
2022/10/19 06:31:05;;;;;;;6.45;1.23;;;11.80;99.90;;;;;;5033793;28;20084;-77
2022/10/19 06:33:31;;;;;;;11.98;1.70;;;11.80;99.90;;;;;;5019060;28;20069;-77
2022/10/19 06:36:11;;;;;;;11.00;1.77;;;11.90;99.90;;;;;;5015500;28;20032;-77
2022/10/19 06:38:37;;;;;;;11.80;1.40;;;11.90;99.90;;;;;;5031692;28;20104;-77
2022/10/19 06:41:03;;;;;;;14.75;2.03;;;11.90;99.90;;;;;;5014843;28;20029;-77
2022/10/19 06:43:28;;;;;;;13.75;1.55;;;11.90;99.90;;;;;;5032922;28;20061;-76
2022/10/19 06:45:54;;;;;;;14.10;1.48;;;11.90;99.90;;;;;;5026360;28;20391;-78
2022/10/19 06:48:20;;;;;;;11.32;2.13;;;11.90;99.90;;;;;;5033753;28;20029;-77
2022/10/19 06:50:46;;;;;;;13.90;2.30;;;12.00;99.90;;;;;;5032714;28;20117;-77
2022/10/19 06:53:11;;;;;;;13.85;2.50;;;12.00;99.90;;;;;;5031457;28;20052;-77
2022/10/19 06:55:37;;;;;;;12.07;2.08;;;12.00;99.90;;;;;;5032399;28;20026;-77
2022/10/19 06:58:03;;;;;;;14.55;1.77;;;12.00;99.90;;;;;;5031662;28;20025;-77
2022/10/19 07:00:29;;;;;;;12.57;3.13;;;12.00;99.90;;;;;;5031803;28;20021;-77
2022/10/19 07:02:57;;;;;;;13.27;2.90;;;12.00;99.90;;;;;;5019836;28;20036;-77
2022/10/19 07:05:22;;;;;;;18.75;3.50;;;12.00;99.90;;;;;;5030552;28;20029;-78
2022/10/19 07:07:48;;;;;;;11.00;2.13;;;12.00;99.90;;;;;;5031551;28;20045;-77
2022/10/19 07:10:14;;;;;;;14.80;2.22;;;12.00;99.90;;;;;;5031790;28;20041;-78
2022/10/19 07:12:39;;;;;;;12.02;1.60;;;12.10;99.90;;;;;;5029140;28;20029;-77
2022/10/19 07:15:05;;;;;;;21.98;2.08;;;12.10;99.90;;;;;;5031570;28;20140;-77
2022/10/19 07:17:31;;;;;;;8.45;2.30;;;12.10;99.90;;;;;;5030725;28;20030;-78
2022/10/19 07:19:56;;;;;;;7.88;2.35;;;12.20;99.90;;;;;;5031852;28;20486;-77
2022/10/19 07:22:22;;;;;;;15.15;1.95;;;12.20;99.90;;;;;;5031655;28;20026;-78
2022/10/19 07:24:48;;;;;;;7.32;1.70;;;12.20;99.90;;;;;;5032571;28;20048;-77
2022/10/19 07:27:14;;;;;;;9.10;2.00;;;12.20;99.90;;;;;;5030601;28;20032;-77
2022/10/19 07:29:39;;;;;;;11.82;1.70;;;12.30;99.90;;;;;;5031146;28;20029;-79
2022/10/19 07:32:05;;;;;;;9.93;1.63;;;12.30;99.90;;;;;;5030440;28;20112;-78
2022/10/19 07:34:31;;;;;;;9.18;1.58;;;12.30;99.90;;;;;;5019963;28;20500;-78
2022/10/19 07:36:56;;;;;;;10.60;1.58;;;12.40;99.90;;;;;;5030290;28;20224;-77
2022/10/19 07:39:22;;;;;;;5.72;1.48;;;12.40;99.90;;;;;;5030971;28;20065;-77
2022/10/19 07:41:48;;;;;;;10.95;1.88;;;12.40;99.90;;;;;;5013290;28;20056;-78
2022/10/19 07:44:14;;;;;;;5.82;1.40;;;12.50;99.90;;;;;;5030900;28;20110;-78
2022/10/19 07:46:40;;;;;;;6.15;1.63;;;12.50;99.90;;;;;;5033929;28;20109;-76
2022/10/19 07:49:09;;;;;;;11.13;1.48;;;12.50;99.90;;;;;;5031158;28;20025;-78
2022/10/19 07:51:36;;;;;;;11.27;1.52;;;12.50;99.90;;;;;;5012529;28;20056;-78
2022/10/19 07:54:02;;;;;;;7.85;1.20;;;12.60;99.90;;;;;;5022818;28;20632;-77
2022/10/19 07:56:29;;;;;;;7.65;1.38;;;12.60;99.90;;;;;;5032163;28;20049;-77
2022/10/19 07:58:57;;;;;;;6.07;1.65;;;12.60;99.90;;;;;;5014339;28;20442;-77
2022/10/19 08:01:25;;;;;;;8.63;1.48;;;12.70;99.90;;;;;;5032910;28;20026;-78
2022/10/19 08:03:53;;;;;;;7.75;1.88;;;12.70;99.90;;;;;;5035064;28;20026;-78
2022/10/19 08:06:19;;;;;;;9.93;1.30;;;12.70;99.90;;;;;;5029340;28;20042;-77
2022/10/19 08:08:46;;;;;;;7.35;1.48;;;12.80;99.90;;;;;;5029790;28;20080;-77
2022/10/19 08:11:18;;;;;;;15.00;1.75;;;12.80;99.90;;;;;;5016601;28;20521;-76
2022/10/19 08:13:44;;;;;;;12.80;1.98;;;12.80;99.90;;;;;;5028693;28;20033;-77
2022/10/19 08:16:40;;;;;;;12.57;1.98;;;12.80;99.90;;;;;;5033306;28;20061;-77
2022/10/19 08:19:09;;;;;;;9.30;1.38;;;13.00;99.90;;;;;;5031817;28;20042;-77
2022/10/19 08:21:36;;;;;;;7.43;1.52;;;13.00;99.90;;;;;;5012877;28;20030;-77
2022/10/19 08:24:02;;;;;;;7.35;1.88;;;13.00;99.90;;;;;;5030934;28;20022;-77
2022/10/19 08:26:29;;;;;;;7.53;2.08;;;12.90;99.90;;;;;;5030554;28;20414;-77
2022/10/19 08:28:59;;;;;;;8.65;1.92;;;13.00;99.90;;;;;;5030790;28;20539;-79
2022/10/19 08:31:25;;;;;;;5.72;1.27;;;13.00;99.90;;;;;;5030042;28;20026;-78
2022/10/19 08:33:51;;;;;;;7.15;1.23;;;13.10;99.90;;;;;;5020993;28;20018;-78
2022/10/19 08:36:21;;;;;;;9.30;1.23;;;13.10;99.90;;;;;;5020405;28;20021;-77
2022/10/19 08:38:47;;;;;;;7.13;1.70;;;13.20;99.90;;;;;;5013802;28;20076;-77
2022/10/19 08:41:22;;;;;;;9.68;1.40;;;13.10;99.90;;;;;;5022767;28;20025;-78
2022/10/19 08:44:02;;;;;;;4.30;1.17;;;13.30;99.90;;;;;;5024447;28;20022;-77
2022/10/19 08:47:00;;;;;;;7.57;1.23;;;13.30;99.90;;;;;;5014417;28;20045;-78
2022/10/19 08:49:29;;;;;;;8.55;2.13;;;13.30;99.90;;;;;;5004411;28;20144;-77
2022/10/19 08:52:00;;;;;;;10.40;1.58;;;13.40;99.90;;;;;;5023541;28;20038;-77
2022/10/19 08:54:57;;;;;;;7.28;1.70;;;13.50;99.90;;;;;;5022367;28;20030;-77
2022/10/19 08:58:01;;;;;;;4.35;1.73;;;13.50;99.90;;;;;;5012511;28;20042;-79
2022/10/19 09:00:42;;;;;;;9.05;1.10;;;13.60;99.90;;;;;;4935187;29;20032;-79
2022/10/19 09:03:26;;;;;;;9.77;1.08;;;13.70;99.90;;;;;;4943096;29;20428;-80
2022/10/19 09:06:04;;;;;;;6.75;1.50;;;13.80;99.90;;;;;;4997737;28;20640;-77
2022/10/19 09:08:30;;;;;;;6.68;1.30;;;13.90;99.90;;;;;;5023173;28;20081;-79
2022/10/19 09:10:56;;;;;;;13.20;1.60;;;14.00;99.90;;;;;;5023429;28;20045;-77
2022/10/19 09:13:42;;;;;;;9.73;1.15;;;14.10;99.90;;;;;;5006383;28;20026;-78
2022/10/19 09:16:13;;;;;;;8.57;1.27;;;14.20;99.90;;;;;;5005102;28;20022;-79
2022/10/19 09:18:39;;;;;;;8.95;1.35;;;14.20;99.90;;;;;;5001419;28;20367;-78
2022/10/19 09:21:14;;;;;;;10.00;1.90;;;14.20;99.90;;;;;;4998758;28;20022;-78
2022/10/19 09:23:43;;;;;;;4.18;1.33;;;14.30;99.90;;;;;;5022556;28;20425;-77
2022/10/19 09:26:16;;;;;;;3.95;0.93;;;14.30;99.90;;;;;;5003491;28;20049;-78
2022/10/19 09:28:57;;;;;;;3.40;1.40;;;14.20;99.90;;;;;;4998655;28;20030;-77
2022/10/19 09:31:32;;;;;;;6.47;1.45;;;14.20;99.90;;;;;;5002955;28;20030;-80
2022/10/19 09:34:05;;;;;;;12.13;1.70;;;14.20;99.90;;;;;;5022145;28;20026;-82
2022/10/19 09:36:40;;;;;;;6.55;1.27;;;14.20;99.90;;;;;;5010521;28;20037;-79
2022/10/19 09:39:10;;;;;;;8.38;1.70;;;14.30;99.90;;;;;;5032626;28;20070;-79
2022/10/19 09:41:42;;;;;;;6.05;1.38;;;14.30;99.90;;;;;;5022374;28;20073;-80
2022/10/19 09:44:09;;;;;;;7.18;1.50;;;14.40;99.90;;;;;;5015815;28;20084;-82
2022/10/19 09:46:35;;;;;;;8.50;1.92;;;14.40;99.90;;;;;;5017392;28;20179;-79
2022/10/19 09:49:03;;;;;;;7.30;1.15;;;14.50;99.90;;;;;;5033913;28;20076;-80
2022/10/19 09:51:50;;;;;;;6.07;1.42;;;14.50;99.90;;;;;;5031620;28;20037;-81
2022/10/19 09:54:34;;;;;;;7.55;1.40;;;14.60;99.90;;;;;;5013527;28;20021;-82
2022/10/19 09:57:00;;;;;;;10.13;1.33;;;14.60;99.90;;;;;;5014091;28;20051;-84
2022/10/19 09:59:31;;;;;;;8.95;1.65;;;14.70;99.90;;;;;;5027388;28;20026;-82
2022/10/19 10:02:14;;;;;;;8.95;1.70;;;14.80;99.90;;;;;;5016726;28;20496;-79
2022/10/19 10:04:40;;;;;;;10.48;1.85;;;14.90;99.90;;;;;;5014133;28;20065;-80
2022/10/19 10:07:15;;;;;;;4.95;1.27;;;14.90;99.90;;;;;;5026644;28;20029;-82
2022/10/19 10:09:43;;;;;;;4.28;0.98;;;15.00;99.90;;;;;;5032821;28;20026;-80
2022/10/19 10:12:12;;;;;;;4.18;1.08;;;15.20;99.90;;;;;;5033198;28;20026;-76
2022/10/19 10:14:39;;;;;;;5.80;1.40;;;15.30;99.90;;;;;;5032438;28;20133;-81
2022/10/19 10:17:21;;;;;;;8.38;1.30;;;15.40;99.90;;;;;;5031875;28;20176;-80
2022/10/19 10:19:58;;;;;;;10.80;1.75;;;15.50;99.90;;;;;;5029354;28;20092;-80
2022/10/19 10:22:35;;;;;;;5.07;1.23;;;15.60;99.90;;;;;;5013701;28;20025;-80
2022/10/19 10:25:09;;;;;;;6.35;1.27;;;15.60;99.90;;;;;;5033104;28;20098;-77
2022/10/19 10:27:37;;;;;;;8.95;1.35;;;15.70;99.90;;;;;;5014067;28;20424;-78
2022/10/19 10:30:17;;;;;;;7.20;1.10;;;15.80;99.90;;;;;;5032473;28;20040;-80
2022/10/19 10:32:51;;;;;;;13.65;1.85;;;15.90;99.90;;;;;;5032492;28;20037;-81
2022/10/19 10:35:24;;;;;;;5.97;1.30;;;16.00;99.90;;;;;;5029047;28;20029;-75
2022/10/19 10:37:50;;;;;;;9.18;1.65;;;16.00;99.90;;;;;;5031886;28;20497;-75
2022/10/19 10:40:26;;;;;;;3.88;1.15;;;16.00;99.90;;;;;;5032498;28;20022;-74
2022/10/19 10:42:56;;;;;;;9.23;1.50;;;16.00;99.90;;;;;;5014090;28;20100;-78
2022/10/19 10:45:23;;;;;;;6.63;1.52;;;16.00;99.90;;;;;;5013807;28;20042;-79
2022/10/19 10:47:50;;;;;;;16.75;1.98;;;16.00;99.90;;;;;;5031652;28;20022;-76
2022/10/19 10:50:33;;;;;;;6.00;1.50;;;16.20;99.90;;;;;;5031599;28;20068;-79
2022/10/19 10:53:05;;;;;;;6.35;1.50;;;16.30;99.90;;;;;;5031568;28;20029;-78
2022/10/19 10:55:32;;;;;;;8.55;1.73;;;16.40;99.90;;;;;;5013443;28;20017;-77
2022/10/19 10:58:12;;;;;;;4.85;1.30;;;16.50;99.90;;;;;;5031486;28;20021;-78
2022/10/19 11:00:39;;;;;;;9.10;1.65;;;16.60;99.90;;;;;;5014202;28;20037;-82
2022/10/19 11:03:23;;;;;;;5.60;1.58;;;16.80;99.90;;;;;;5013226;28;20026;-80
2022/10/19 11:06:01;;;;;;;7.60;1.77;;;16.90;99.90;;;;;;5020884;28;20070;-76
2022/10/19 11:08:49;;;;;;;5.38;1.38;;;17.00;99.90;;;;;;5032065;28;20041;-79
2022/10/19 11:11:20;;;;;;;8.25;1.30;;;16.80;99.90;;;;;;5033059;28;20053;-78
2022/10/19 11:13:55;;;;;;;8.80;1.27;;;16.80;99.90;;;;;;5030121;28;20045;-78
2022/10/19 11:16:34;;;;;;;4.20;1.25;;;16.80;99.90;;;;;;5031133;28;20037;-79
2022/10/19 11:19:24;;;;;;;3.13;1.23;;;16.90;99.90;;;;;;5033971;28;20025;-77
2022/10/19 11:22:00;;;;;;;4.40;1.38;;;17.00;99.90;;;;;;5022927;28;20541;-76
2022/10/19 11:24:44;;;;;;;5.68;1.20;;;17.10;99.90;;;;;;5029237;28;20143;-79
2022/10/19 11:27:35;;;;;;;7.25;1.58;;;17.00;99.90;;;;;;5029608;28;20034;-78
2022/10/19 11:30:15;;;;;;;5.43;1.27;;;16.90;99.90;;;;;;5031101;28;20030;-78
2022/10/19 11:33:03;;;;;;;9.32;1.38;;;16.70;99.90;;;;;;5031422;28;20073;-78
2022/10/19 11:35:38;;;;;;;4.40;1.38;;;16.50;99.90;;;;;;5031935;28;20032;-79
2022/10/19 11:38:18;;;;;;;6.85;1.38;;;16.60;99.90;;;;;;5029992;28;20105;-79
2022/10/19 11:41:05;;;;;;;8.80;1.60;;;16.60;99.90;;;;;;5014725;28;20538;-81
2022/10/19 11:43:45;;;;;;;11.80;1.77;;;16.40;99.90;;;;;;5026107;28;20037;-78
2022/10/19 11:46:23;;;;;;;5.38;1.38;;;16.30;99.90;;;;;;5014595;28;20041;-77
2022/10/19 11:49:17;;;;;;;6.90;1.45;;;16.40;99.90;;;;;;5031259;28;20029;-78
2022/10/19 11:51:56;;;;;;;5.40;1.45;;;16.40;99.90;;;;;;5031647;28;20085;-79
2022/10/19 11:54:45;;;;;;;6.72;1.67;;;16.50;99.90;;;;;;5008510;28;20030;-79
2022/10/19 11:57:24;;;;;;;2.60;1.20;;;17.10;99.90;;;;;;5029558;28;20060;-78
2022/10/19 12:00:01;;;;;;;5.80;1.30;;;17.70;99.90;;;;;;5030613;28;21539;-79
2022/10/19 12:02:55;;;;;;;4.78;1.08;;;17.50;99.90;;;;;;5030556;28;20029;-80
2022/10/19 12:05:34;;;;;;;5.68;1.40;;;17.40;99.90;;;;;;5012921;28;20044;-81
2022/10/19 12:08:20;;;;;;;6.35;1.13;;;17.50;99.90;;;;;;5019338;28;20037;-80
2022/10/19 12:11:09;;;;;;;5.57;1.40;;;17.90;99.90;;;;;;5005324;28;20026;-80
2022/10/19 12:14:07;;;;;;;6.88;1.10;;;18.50;99.90;;;;;;5031034;28;20026;-76
2022/10/19 12:16:41;;;;;;;4.13;1.00;;;18.80;99.90;;;;;;5035238;28;20045;-77
2022/10/19 12:19:35;;;;;;;3.05;0.88;;;19.00;99.90;;;;;;5017180;28;20029;-79
2022/10/19 12:22:03;;;;;;;7.18;1.15;;;18.90;99.90;;;;;;5018252;28;20034;-79
2022/10/19 12:24:31;;;;;;;5.45;1.00;;;18.80;99.90;;;;;;5033552;28;20029;-80
2022/10/19 12:26:58;;;;;;;7.85;1.38;;;18.80;99.90;;;;;;5008203;28;20060;-78
2022/10/19 12:29:32;;;;;;;7.88;1.27;;;18.90;99.90;;;;;;5015825;28;20508;-79
2022/10/19 12:32:00;;;;;;;4.28;1.10;;;19.10;99.90;;;;;;5033761;28;20029;-79
2022/10/19 12:34:58;;;;;;;6.57;1.10;;;19.50;99.90;;;;;;5034918;28;20083;-79
2022/10/19 12:37:38;;;;;;;4.45;0.65;;;19.70;99.90;;;;;;5016078;28;20053;-78
2022/10/19 12:40:15;;;;;;;3.72;0.95;;;19.80;99.90;;;;;;5023874;28;20041;-80
2022/10/19 12:42:52;;;;;;;2.67;0.98;;;19.90;99.90;;;;;;5034085;28;20028;-80
2022/10/19 12:45:24;;;;;;;2.88;0.98;;;19.80;99.90;;;;;;5016692;28;20145;-78
2022/10/19 12:48:11;;;;;;;2.47;0.77;;;19.90;99.90;;;;;;5024667;28;20022;-79
2022/10/19 12:50:48;;;;;;;4.85;0.85;;;20.00;99.90;;;;;;5034538;28;20034;-78
2022/10/19 12:53:38;;;;;;;6.00;1.15;;;19.90;99.90;;;;;;5034007;28;20037;-77
2022/10/19 12:56:06;;;;;;;3.67;0.90;;;19.90;99.90;;;;;;5034259;28;20379;-77
2022/10/19 12:59:00;;;;;;;4.25;0.98;;;19.90;99.90;;;;;;5023403;28;20037;-78
2022/10/19 13:01:34;;;;;;;2.75;0.80;;;19.90;99.90;;;;;;5036340;28;20037;-78
2022/10/19 13:04:19;;;;;;;1.95;0.70;;;19.90;99.90;;;;;;5024827;28;20030;-79